Latest Weather Observations for Moruya Airport

IDN60901

Issued at 6:31 am EST Thursday 16 August 2018 (issued every 10 minutes, with the page automatically refreshed every 10 minutes)

About weather observations | Map of Canberra area stations | Latest observations for Canberra area | Other Formats
Station Details ID: 069148 Name: MORUYA AIRPORT AWS Lat: -35.90 Lon: 150.14 Height: 4.0 m
Data from the previous 72 hours. | See also: Recent months at Moruya Airport
Date/Time
EST
Temp
°C
App
Temp
°C
Dew
Point
°C
Rel
Hum
%
Delta-T
°C
Wind Press
QNH
hPa
Press
MSL
hPa
Rain since
9am
mm
Dir  Spd
km/h
Gust
km/h
Spd
kts
Gust
kts
16/06:30am 6.5 4.9 2.6 76 1.6 CALM 0 0 0 0 1008.7 1008.7 0.0
16/06:00am 6.2 4.4 1.5 72 1.9 CALM 0 0 0 0 1008.1 1008.1 0.0
16/05:30am 6.8 5.2 2.3 73 1.8 CALM 0 6 0 3 1007.7 1007.7 0.0
16/05:00am 7.0 5.4 2.3 72 1.9 CALM 0 0 0 0 1007.5 1007.5 0.0
16/04:30am 7.8 5.8 2.5 69 2.2 ESE 2 7 1 4 1007.2 1007.2 0.0
16/04:00am 8.0 6.1 2.7 69 2.2 WNW 2 7 1 4 1007.0 1007.0 0.0
16/03:30am 7.9 4.8 1.5 64 2.6 N 7 11 4 6 1006.6 1006.6 0.0
16/03:00am 9.5 7.0 1.7 58 3.3 NNE 4 7 2 4 1006.4 1006.4 0.0
16/02:30am 11.2 8.5 2.5 55 3.7 W 6 15 3 8 1006.5 1006.5 0.0
16/02:00am 13.9 11.2 2.5 46 5.0 WNW 6 11 3 6 1006.9 1006.9 0.0
16/01:30am 15.3 11.3 3.1 44 5.5 SSW 13 17 7 9 1006.5 1006.5 0.0
16/01:00am 15.3 12.0 2.5 42 5.7 SSW 9 13 5 7 1006.3 1006.3 0.0
16/12:30am 17.1 13.1 0.7 33 7.2 WSW 11 19 6 10 1006.3 1006.3 0.0
16/12:00am 18.6 13.5 0.7 30 7.9 W 17 30 9 16 1006.1 1006.1 0.0
 
Date/Time
EST
Temp
°C
App
Temp
°C
Dew
Point
°C
Rel
Hum
%
Delta-T
°C
Wind Press
QNH
hPa
Press
MSL
hPa
Rain since
9am
mm
Dir  Spd
km/h
Gust
km/h
Spd
kts
Gust
kts
15/11:30pm 18.5 14.1 0.2 29 8.0 W 13 22 7 12 1006.0 1006.0 0.0
15/11:00pm 19.1 13.5 -0.3 27 8.5 W 19 35 10 19 1005.9 1005.9 0.0
15/10:30pm 18.7 14.2 -0.2 28 8.2 WNW 13 22 7 12 1005.7 1005.7 0.0
15/10:00pm 19.2 14.0 0.3 28 8.4 WNW 17 39 9 21 1005.5 1005.5 0.0
15/09:30pm 19.0 13.4 0.1 28 8.3 NW 19 39 10 21 1005.5 1005.5 0.0
15/09:00pm 18.8 13.6 0.4 29 8.1 NW 17 33 9 18 1005.5 1005.5 0.0
15/08:30pm 18.8 13.3 0.4 29 8.1 NW 19 37 10 20 1005.7 1005.7 0.0
15/08:00pm 18.4 13.0 1.0 31 7.8 NNW 19 32 10 17 1005.4 1005.4 0.0
15/07:30pm 17.7 13.0 1.2 33 7.3 NNW 15 26 8 14 1005.7 1005.7 0.0
15/07:00pm 18.0 12.5 0.6 31 7.7 NNW 19 35 10 19 1005.8 1005.8 0.0
15/06:30pm 18.6 13.5 0.7 30 7.9 NW 17 32 9 17 1005.6 1005.6 0.0
15/06:00pm 18.9 13.2 0.5 29 8.2 NW 20 43 11 23 1005.6 1005.6 0.0
15/05:30pm 19.4 13.8 0.9 29 8.3 NW 20 37 11 20 1005.4 1005.4 0.0
15/05:00pm 20.8 15.0 0.1 25 9.3 NW 20 33 11 18 1005.1 1005.1 0.0
15/04:30pm 21.9 15.6 -0.8 22 10.0 WNW 22 46 12 25 1004.7 1004.7 0.0
15/04:00pm 23.0 16.2 -1.8 19 10.9 WNW 24 50 13 27 1004.5 1004.5 0.0
15/03:30pm 23.9 18.4 -1.8 18 11.3 WNW 17 30 9 16 1003.9 1003.9 0.0
15/03:00pm 24.6 18.7 -2.0 17 11.8 WNW 19 32 10 17 1003.8 1003.8 0.0
15/02:30pm 24.6 18.5 -2.0 17 11.7 NW 20 39 11 21 1004.0 1004.0 0.0
15/02:00pm 24.8 18.8 -2.7 16 12.1 NW 19 32 10 17 1004.0 1004.0 0.0
15/01:41pm 24.3 17.3 -3.1 16 11.8 NW 24 50 13 27 1004.1 1004.1 0.0
15/01:30pm 24.5 18.9 -2.9 16 11.9 WNW 17 35 9 19 1004.1 1004.1 0.0
15/01:00pm 24.5 18.0 -2.1 17 11.8 NW 22 39 12 21 1004.3 1004.3 0.0
15/12:30pm 24.3 17.9 -1.5 18 11.5 WNW 22 39 12 21 1004.8 1004.8 0.0
15/12:00pm 23.6 19.3 0.7 22 10.6 NW 13 22 7 12 1005.3 1005.3 0.0
15/11:30am 23.0 17.3 -1.1 20 10.7 NW 19 32 10 17 1005.7 1005.7 0.0
15/11:00am 22.5 16.7 -0.3 22 10.3 NW 20 33 11 18 1005.9 1005.9 0.0
15/10:30am 21.1 15.9 0.3 25 9.3 NW 17 33 9 18 1006.4 1006.4 0.0
15/10:00am 19.4 14.2 -0.1 27 8.6 NW 17 28 9 15 1006.8 1006.8 0.0
15/09:30am 19.6 14.4 0.1 27 8.6 NW 17 32 9 17 1006.7 1006.7 0.0
15/09:00am 18.2 12.6 -0.1 29 8.0 NW 19 33 10 18 1007.1 1007.1 0.0
15/08:30am 17.5 11.9 0.2 31 7.5 NW 19 33 10 18 1007.3 1007.3 0.0
15/08:00am 17.0 12.2 0.2 32 7.3 WNW 15 26 8 14 1007.8 1007.8 0.0
15/07:30am 16.3 10.5 0.0 33 7.0 W 20 35 11 19 1007.6 1007.6 0.0
15/07:00am 15.7 9.2 0.3 35 6.6 W 24 52 13 28 1007.0 1007.0 0.0
15/06:30am 15.7 9.1 -0.1 34 6.7 NW 24 44 13 24 1006.3 1006.3 0.0
15/06:00am 15.9 9.4 0.1 34 6.8 NW 24 46 13 25 1006.5 1006.5 0.0
15/05:30am 15.2 10.0 0.2 36 6.4 NNW 17 28 9 15 1007.3 1007.3 0.0
15/05:00am 14.6 9.1 0.8 39 5.9 N 19 30 10 16 1007.8 1007.8 0.0
15/04:30am 14.9 9.7 0.4 37 6.2 NNW 17 28 9 15 1008.6 1008.6 0.0
15/04:00am 15.3 10.9 0.3 36 6.4 NW 13 26 7 14 1008.7 1008.7 0.0
15/03:30am 15.5 10.6 -0.3 34 6.7 NW 15 28 8 15 1008.7 1008.7 0.0
15/03:00am 16.4 11.0 -1.7 29 7.5 NW 17 32 9 17 1009.0 1009.0 0.0
15/02:30am 16.0 11.3 -1.5 30 7.2 WNW 13 30 7 16 1009.7 1009.7 0.0
15/02:00am 13.3 9.1 1.6 45 5.0 NNW 13 26 7 14 1009.8 1009.8 0.0
15/01:59am 12.8 9.0 1.8 47 4.7 NNW 11 24 6 13 1009.8 1009.8 0.0
15/01:30am 7.1 4.3 2.2 71 2.0 NNW 6 9 3 5 1010.4 1010.4 0.0
15/01:00am 8.1 5.2 2.6 68 2.3 N 7 13 4 7 1011.2 1011.2 0.0
15/12:30am 9.3 6.0 2.2 61 3.0 NNW 9 11 5 6 1011.7 1011.7 0.0
15/12:00am 12.0 7.2 2.5 52 4.1 NNW 17 22 9 12 1012.2 1012.2 0.0
 
Date/Time
EST
Temp
°C
App
Temp
°C
Dew
Point
°C
Rel
Hum
%
Delta-T
°C
Wind Press
QNH
hPa
Press
MSL
hPa
Rain since
9am
mm
Dir  Spd
km/h
Gust
km/h
Spd
kts
Gust
kts
14/11:30pm 12.1 8.0 2.0 50 4.3 NNW 13 17 7 9 1012.9 1012.9 0.0
14/11:00pm 14.9 10.6 1.1 39 6.0 NW 13 22 7 12 1013.3 1013.3 0.0
14/10:30pm 14.6 10.9 2.5 44 5.4 NNW 11 19 6 10 1013.7 1013.7 0.0
14/10:00pm 12.4 9.2 4.9 60 3.4 N 11 15 6 8 1014.2 1014.2 0.0
14/09:30pm 14.5 11.1 3.9 49 4.8 NW 11 20 6 11 1014.4 1014.4 0.0
14/09:00pm 13.3 10.3 3.9 53 4.2 NNW 9 17 5 9 1014.9 1014.9 0.0
14/08:30pm 12.7 10.4 4.7 58 3.7 NW 6 9 3 5 1015.2 1015.2 0.0
14/08:00pm 11.8 9.4 5.2 64 3.0 NW 7 11 4 6 1015.1 1015.1 0.0
14/07:30pm 10.7 8.3 7.0 78 1.8 NW 9 13 5 7 1015.3 1015.3 0.0
14/07:00pm 9.4 7.5 7.5 88 0.9 NW 7 11 4 6 1015.2 1015.2 0.0
14/06:30pm 10.0 8.3 7.4 84 1.2 WNW 6 11 3 6 1015.0 1015.0 0.0
14/06:00pm 11.4 10.6 8.1 80 1.6 N 2 6 1 3 1015.0 1015.0 0.0
14/05:30pm 13.9 12.1 9.5 75 2.3 N 9 11 5 6 1014.9 1014.9 0.0
14/05:00pm 15.8 13.2 10.6 71 2.8 NE 15 19 8 10 1014.9 1014.9 0.0
14/04:30pm 16.6 13.5 10.2 66 3.4 NE 17 20 9 11 1014.9 1014.9 0.0
14/04:00pm 17.2 13.4 8.9 58 4.3 NE 19 26 10 14 1015.1 1015.1 0.0
14/03:30pm 17.3 13.3 9.2 59 4.2 NE 20 26 11 14 1015.3 1015.3 0.0
14/03:00pm 17.3 13.5 9.0 58 4.3 NE 19 26 10 14 1015.6 1015.6 0.0
14/02:30pm 17.4 13.7 9.6 60 4.1 NE 19 24 10 13 1015.8 1015.8 0.0
14/02:00pm 17.5 13.7 9.2 58 4.3 NE 19 24 10 13 1016.2 1016.2 0.0
14/01:30pm 17.7 13.4 7.7 52 5.1 NE 20 28 11 15 1016.8 1016.8 0.0
14/01:00pm 17.7 13.8 8.6 55 4.7 ENE 19 24 10 13 1017.5 1017.5 0.0
14/12:30pm 17.7 13.9 7.7 52 5.1 ENE 17 20 9 11 1018.1 1018.1 0.0
14/12:00pm 17.6 14.2 7.6 52 5.0 ENE 15 17 8 9 1019.0 1019.0 0.0
14/11:30am 16.6 13.7 6.7 52 4.9 E 11 13 6 7 1019.7 1019.7 0.0
14/11:00am 15.2 11.8 5.7 53 4.5 NE 13 15 7 8 1020.3 1020.3 0.0
14/10:30am 15.1 11.5 4.8 50 4.8 ENE 13 15 7 8 1020.8 1020.8 0.0
14/10:00am 14.7 11.8 4.4 50 4.7 ENE 9 11 5 6 1021.3 1021.3 0.0
14/09:30am 13.4 11.1 4.6 55 4.0 S 6 7 3 4 1021.5 1021.5 0.0
14/09:00am 11.5 10.2 4.0 60 3.3 CALM 0 0 0 0 1021.7 1021.7 0.0
14/08:30am 9.2 8.2 5.6 78 1.6 CALM 0 0 0 0 1021.8 1021.8 0.0
14/08:00am 5.7 4.4 4.0 89 0.7 CALM 0 0 0 0 1021.6 1021.6 0.0
14/07:30am 2.7 0.9 1.5 92 0.5 CALM 0 0 0 0 1021.4 1021.4 0.0
14/07:00am 1.1 -0.9 -0.1 92 0.4 CALM 0 0 0 0 1021.0 1021.0 0.0
14/06:30am 1.3 -0.7 0.0 91 0.5 CALM 0 0 0 0 1020.7 1020.7 0.0
14/06:00am 1.3 -0.7 -0.2 90 0.5 CALM 0 0 0 0 1020.5 1020.5 0.0
14/05:30am 2.2 0.3 0.7 90 0.6 CALM 0 6 0 3 1020.3 1020.3 0.0
14/05:00am 3.2 0.7 1.4 88 0.7 NW 4 6 2 3 1020.2 1020.2 0.0
14/04:30am 2.3 0.3 0.0 85 0.8 CALM 0 2 0 1 1020.1 1020.1 0.0
14/04:00am 3.7 0.8 1.4 85 0.9 N 6 7 3 4 1019.9 1019.9 0.0
14/03:30am 3.7 1.9 1.4 85 0.9 CALM 0 4 0 2 1019.8 1019.8 0.0
14/03:00am 4.6 2.5 2.0 83 1.0 WNW 2 9 1 5 1019.8 1019.8 0.0
14/02:30am 5.3 2.4 2.7 83 1.1 W 7 9 4 5 1019.8 1019.8 0.0
14/02:00am 6.0 3.3 3.7 85 1.0 W 7 9 4 5 1019.9 1019.9 0.0
14/01:30am 6.6 3.8 2.9 77 1.5 WNW 7 11 4 6 1020.2 1020.2 0.0
14/01:00am 9.4 6.0 2.0 60 3.1 WNW 9 13 5 7 1020.3 1020.3 0.0
14/12:30am 8.5 4.9 2.9 68 2.4 WNW 11 15 6 8 1020.0 1020.0 0.0
14/12:00am 5.6 2.5 3.4 86 0.9 WNW 9 13 5 7 1020.2 1020.2 0.0
 
Date/Time
EST
Temp
°C
App
Temp
°C
Dew
Point
°C
Rel
Hum
%
Delta-T
°C
Wind Press
QNH
hPa
Press
MSL
hPa
Rain since
9am
mm
Dir  Spd
km/h
Gust
km/h
Spd
kts
Gust
kts
13/11:30pm 5.9 3.2 3.9 87 0.8 W 7 13 4 7 1020.2 1020.2 0.0
13/11:00pm 4.6 1.8 3.3 91 0.5 W 7 9 4 5 1020.3 1020.3 0.0
13/10:30pm 5.4 3.0 4.1 91 0.5 W 6 9 3 5 1020.5 1020.5 0.0
13/10:00pm 6.2 3.3 4.8 91 0.6 NW 9 11 5 6 1020.4 1020.4 0.0
13/09:30pm 6.8 4.6 5.3 90 0.7 WNW 6 7 3 4 1020.5 1020.5 0.0
13/09:00pm 7.1 4.8 5.6 90 0.7 WNW 7 11 4 6 1020.3 1020.3 0.0
13/08:30pm 7.0 4.6 5.3 89 0.8 W 7 9 4 5 1020.2 1020.2 0.0
13/08:00pm 7.9 5.7 6.0 88 0.9 W 7 9 4 5 1020.3 1020.3 0.0
13/07:30pm 8.9 7.0 6.7 86 1.0 WNW 6 7 3 4 1020.0 1020.0 0.0
13/07:00pm 9.9 8.0 6.8 81 1.4 W 6 7 3 4 1019.6 1019.6 0.0
13/06:30pm 10.5 8.7 7.0 79 1.7 SW 6 9 3 5 1019.3 1019.3 0.0
13/06:00pm 12.3 10.7 7.8 74 2.2 E 6 11 3 6 1018.8 1018.8 0.0
13/05:30pm 14.2 11.9 9.0 71 2.6 NE 11 15 6 8 1018.6 1018.6 0.0
13/05:00pm 14.8 12.5 9.0 68 2.9 NE 11 17 6 9 1018.5 1018.5 0.0
13/04:30pm 15.5 12.9 9.2 66 3.2 NE 13 17 7 9 1018.2 1018.2 0.0
13/04:00pm 16.1 12.9 8.3 60 3.9 NE 15 20 8 11 1017.9 1017.9 0.0
13/03:30pm 16.5 12.9 8.2 58 4.2 NE 17 22 9 12 1018.0 1018.0 0.0
13/03:00pm 17.0 13.2 7.4 53 4.8 NE 17 24 9 13 1017.7 1017.7 0.0
13/02:30pm 17.2 12.9 7.8 54 4.8 NE 20 24 11 13 1017.7 1017.7 0.0
13/02:00pm 17.4 12.9 6.0 47 5.6 NE 19 28 10 15 1017.8 1017.8 0.0
13/01:30pm 17.3 12.6 5.9 47 5.5 NE 20 26 11 14 1017.8 1017.8 0.0
13/01:00pm 17.7 13.4 5.3 44 6.0 ENE 17 22 9 12 1018.6 1018.6 0.0
13/12:30pm 17.0 12.1 4.3 43 6.0 NE 19 22 10 12 1018.8 1018.8 0.0
13/12:00pm 17.3 12.7 6.5 49 5.3 NE 20 22 11 12 1019.1 1019.1 0.0
13/11:30am 17.1 12.1 3.4 40 6.3 E 19 22 10 12 1019.7 1019.7 0.0
13/11:00am 18.2 14.7 1.3 32 7.5 NNE 9 13 5 7 1019.9 1019.9 0.0
13/10:30am 17.0 13.1 1.0 34 7.0 NE 11 15 6 8 1020.2 1020.2 0.0
13/10:00am 17.0 13.8 0.6 33 7.1 SE 7 13 4 7 1020.4 1020.4 0.0
13/09:30am 16.1 12.8 0.3 34 6.8 WNW 7 13 4 7 1020.0 1020.0 0.0
13/09:00am 15.1 12.0 1.3 39 6.0 NNW 7 13 4 7 1019.4 1019.4 0.0
13/08:30am 13.2 10.4 1.8 46 4.9 NW 6 9 3 5 1019.1 1019.1 0.0
13/08:00am 11.2 7.9 2.2 54 3.8 NW 9 15 5 8 1018.4 1018.4 0.0
13/07:59am 11.0 7.6 1.8 53 3.9 NW 9 13 5 7 1018.4 1018.4 0.0
13/07:30am 5.9 3.1 1.8 75 1.6 W 6 13 3 7 1018.5 1018.5 0.0
13/07:00am 3.6 0.3 0.0 77 1.3 WNW 7 13 4 7 1018.3 1018.3 0.0

Latest Capital City Observations: Canberra | Sydney | Melbourne | Brisbane | Adelaide | Perth | Hobart | Darwin

Other Formats:

Comma delimited format used in spreadsheet applications
http://www.bom.gov.au/fwo/IDN60903/IDN60903.95937.axf

JavaScript Object Notation format (JSON) in row-major order
http://www.bom.gov.au/fwo/IDN60903/IDN60903.95937.json